createdAt,value
2023-02-14T00:00:21.538Z,102332.47
2023-02-14T00:02:49.396Z,102343.19
2023-02-14T00:05:16.080Z,102339.84
2023-02-14T00:07:42.655Z,102342.50
2023-02-14T00:10:10.199Z,102352.75
2023-02-14T00:12:36.730Z,102368.59
2023-02-14T00:15:03.582Z,102359.88
2023-02-14T00:17:30.168Z,102346.53
2023-02-14T00:19:56.680Z,102361.84
2023-02-14T00:22:23.213Z,102355.84
2023-02-14T00:24:49.830Z,102342.59
2023-02-14T00:27:16.511Z,102338.53
2023-02-14T00:29:43.179Z,102356.75
2023-02-14T00:32:10.139Z,102348.94
2023-02-14T00:34:36.823Z,102347.06
2023-02-14T00:37:06.423Z,102348.34
2023-02-14T00:39:33.017Z,102344.66
2023-02-14T00:41:59.526Z,102350.78
2023-02-14T00:44:26.144Z,102342.94
2023-02-14T00:46:52.686Z,102347.22
2023-02-14T00:49:19.264Z,102348.03
2023-02-14T00:51:45.934Z,102344.59
2023-02-14T00:54:12.555Z,102335.84
2023-02-14T00:56:39.211Z,102331.41
2023-02-14T00:59:05.786Z,102324.00
2023-02-14T01:01:32.378Z,102330.03
2023-02-14T01:03:58.987Z,102348.56
2023-02-14T01:06:25.703Z,102336.28
2023-02-14T01:08:52.284Z,102325.53
2023-02-14T01:11:21.427Z,102333.03
2023-02-14T01:13:49.605Z,102323.75
2023-02-14T01:16:20.035Z,102317.75
2023-02-14T01:18:48.836Z,102314.47
2023-02-14T01:21:21.386Z,102308.91
2023-02-14T01:23:50.188Z,102315.28
2023-02-14T01:26:17.606Z,102300.75
2023-02-14T01:28:44.671Z,102287.78
2023-02-14T01:31:15.074Z,102284.03
2023-02-14T01:33:43.726Z,102297.84
2023-02-14T01:36:19.296Z,102298.72
2023-02-14T01:38:46.456Z,102300.59
2023-02-14T01:41:13.313Z,102313.97
2023-02-14T01:43:51.779Z,102308.81
2023-02-14T01:46:18.552Z,102295.53
2023-02-14T01:48:45.897Z,102306.66
2023-02-14T01:51:14.293Z,102308.91
2023-02-14T01:53:40.996Z,102296.28
2023-02-14T01:56:13.313Z,102303.50
2023-02-14T01:58:44.193Z,102320.22
2023-02-14T02:01:14.735Z,102306.16
2023-02-14T02:03:49.335Z,102308.72
2023-02-14T02:06:21.977Z,102313.13
2023-02-14T02:09:26.257Z,102311.28
2023-02-14T02:11:52.928Z,102310.84
2023-02-14T02:14:21.839Z,102314.19
2023-02-14T02:17:23.679Z,102310.16
2023-02-14T02:20:02.144Z,102314.09
2023-02-14T02:22:42.310Z,102303.00
2023-02-14T02:25:52.561Z,102299.22
2023-02-14T02:28:24.981Z,102303.28
2023-02-14T02:31:13.277Z,102298.22
2023-02-14T02:34:03.850Z,102304.91
2023-02-14T02:36:50.450Z,102292.47
2023-02-14T02:39:49.176Z,102302.63
2023-02-14T02:42:31.375Z,102292.09
2023-02-14T02:45:12.248Z,102294.91
2023-02-14T02:48:06.576Z,102285.69
2023-02-14T02:50:41.503Z,102283.53
2023-02-14T02:53:14.932Z,102292.84
2023-02-14T02:55:44.552Z,102288.16
2023-02-14T02:58:11.298Z,102291.53
2023-02-14T03:00:37.950Z,102294.34
2023-02-14T03:03:05.124Z,102285.78
2023-02-14T03:05:34.225Z,102284.00
2023-02-14T03:08:00.846Z,102281.09
2023-02-14T03:10:32.104Z,102278.56
2023-02-14T03:13:10.465Z,102293.22
2023-02-14T03:15:49.276Z,102296.22
2023-02-14T03:18:44.566Z,102289.00
2023-02-14T03:21:14.070Z,102288.63
2023-02-14T03:23:50.411Z,102285.25
2023-02-14T03:26:20.494Z,102287.22
2023-02-14T03:29:12.743Z,102281.09
2023-02-14T03:32:03.878Z,102289.84
2023-02-14T03:34:38.595Z,102281.75
2023-02-14T03:37:17.125Z,102282.31
2023-02-14T03:40:22.683Z,102286.19
2023-02-14T03:42:54.509Z,102286.38
2023-02-14T03:45:27.660Z,102284.38
2023-02-14T03:47:58.612Z,102281.38
2023-02-14T03:50:28.014Z,102283.06
2023-02-14T03:52:58.104Z,102277.59
2023-02-14T03:55:36.077Z,102282.03
2023-02-14T03:58:20.241Z,102290.13
2023-02-14T04:00:50.390Z,102291.53
2023-02-14T04:03:19.472Z,102280.72
2023-02-14T04:05:47.175Z,102283.66
2023-02-14T04:08:26.396Z,102283.34
2023-02-14T04:10:54.300Z,102281.44
2023-02-14T04:13:21.356Z,102277.44
2023-02-14T04:15:48.219Z,102269.06
2023-02-14T04:18:15.032Z,102270.91
2023-02-14T04:20:41.725Z,102263.88
2023-02-14T04:23:08.262Z,102263.31
2023-02-14T04:25:34.827Z,102268.50
2023-02-14T04:28:01.439Z,102279.31
2023-02-14T04:30:28.143Z,102279.28
2023-02-14T04:32:54.728Z,102279.88
2023-02-14T04:35:21.408Z,102273.59
2023-02-14T04:37:47.958Z,102277.16
2023-02-14T04:40:14.934Z,102270.00
2023-02-14T04:42:41.484Z,102268.00
2023-02-14T04:45:08.500Z,102269.53
2023-02-14T04:47:35.036Z,102281.47
2023-02-14T04:50:01.702Z,102285.63
2023-02-14T04:52:28.328Z,102285.41
2023-02-14T04:54:55.042Z,102276.47
2023-02-14T04:57:21.805Z,102287.22
2023-02-14T04:59:48.531Z,102281.47
2023-02-14T05:02:15.447Z,102287.69
2023-02-14T05:04:42.218Z,102283.06
2023-02-14T05:07:08.891Z,102287.09
2023-02-14T05:09:35.588Z,102278.34
2023-02-14T05:12:02.178Z,102276.50
2023-02-14T05:14:28.700Z,102282.69
2023-02-14T05:16:55.338Z,102281.38
2023-02-14T05:19:21.958Z,102287.13
2023-02-14T05:21:48.637Z,102284.78
2023-02-14T05:24:16.292Z,102279.69
2023-02-14T05:26:43.048Z,102292.56
2023-02-14T05:29:09.683Z,102287.78
2023-02-14T05:31:36.471Z,102296.44
2023-02-14T05:34:05.388Z,102305.38
2023-02-14T05:36:31.931Z,102303.78
2023-02-14T05:38:58.536Z,102308.19
2023-02-14T05:41:25.237Z,102322.66
2023-02-14T05:43:51.820Z,102327.19
2023-02-14T05:46:18.475Z,102334.25
2023-02-14T05:48:45.076Z,102321.06
2023-02-14T05:51:11.705Z,102324.53
2023-02-14T05:53:38.742Z,102329.13
2023-02-14T05:56:05.917Z,102320.75
2023-02-14T05:58:32.834Z,102328.75
2023-02-14T06:01:00.014Z,102326.97
2023-02-14T06:03:27.185Z,102327.41
2023-02-14T06:05:53.777Z,102338.34
2023-02-14T06:08:20.393Z,102338.22
2023-02-14T06:10:46.952Z,102331.16
2023-02-14T06:13:13.631Z,102333.06
2023-02-14T06:15:40.219Z,102332.59
2023-02-14T06:18:07.107Z,102340.66
2023-02-14T06:20:34.013Z,102346.03
2023-02-14T06:23:01.475Z,102341.91
2023-02-14T06:25:28.196Z,102342.53
2023-02-14T06:27:58.861Z,102340.09
2023-02-14T06:30:26.710Z,102340.34
2023-02-14T06:32:53.512Z,102331.78
2023-02-14T06:35:23.137Z,102324.69
2023-02-14T06:37:49.876Z,102325.41
2023-02-14T06:40:26.800Z,102331.53
2023-02-14T06:42:53.479Z,102321.22
2023-02-14T06:45:24.755Z,102319.38
2023-02-14T06:47:51.586Z,102320.66
2023-02-14T06:50:18.540Z,102315.50
2023-02-14T06:52:47.035Z,102331.00
2023-02-14T06:55:13.773Z,102332.16
2023-02-14T06:57:40.663Z,102338.00
2023-02-14T07:00:08.516Z,102332.16
2023-02-14T07:02:35.385Z,102325.91
2023-02-14T07:05:02.028Z,102326.75
2023-02-14T07:07:28.845Z,102330.13
2023-02-14T07:09:55.866Z,102330.13
2023-02-14T07:12:22.448Z,102325.78
2023-02-14T07:14:49.045Z,102315.19
2023-02-14T07:17:19.275Z,102322.66
2023-02-14T07:19:45.871Z,102321.84
2023-02-14T07:22:12.490Z,102326.50
2023-02-14T07:24:39.144Z,102318.97
2023-02-14T07:27:05.879Z,102324.44
2023-02-14T07:32:13.951Z,102321.03
2023-02-14T07:34:40.716Z,102315.56
2023-02-14T07:37:07.487Z,102324.28
2023-02-14T07:39:34.268Z,102336.09
2023-02-14T07:42:00.941Z,102329.56
2023-02-14T07:44:27.658Z,102324.97
2023-02-14T07:46:56.351Z,102328.41
2023-02-14T07:49:24.133Z,102333.19
2023-02-14T07:51:50.741Z,102329.34
2023-02-14T07:54:18.383Z,102328.59
2023-02-14T07:56:46.160Z,102330.28
2023-02-14T07:59:14.826Z,102334.56
2023-02-14T08:01:44.416Z,102333.34
2023-02-14T08:04:11.493Z,102341.38
2023-02-14T08:06:39.205Z,102343.50
2023-02-14T08:09:05.960Z,102344.81
2023-02-14T08:11:33.638Z,102338.72
2023-02-14T08:14:02.779Z,102330.91
2023-02-14T08:16:33.303Z,102325.22
2023-02-14T08:19:00.636Z,102341.91
2023-02-14T08:21:27.856Z,102332.19
2023-02-14T08:23:54.533Z,102341.88
2023-02-14T08:26:21.426Z,102354.94
2023-02-14T08:28:48.324Z,102352.88
2023-02-14T08:31:34.695Z,102362.16
2023-02-14T08:34:02.082Z,102353.94
2023-02-14T08:36:28.724Z,102360.47
2023-02-14T08:38:55.443Z,102356.88
2023-02-14T08:41:22.087Z,102356.25
2023-02-14T08:43:50.691Z,102361.31
2023-02-14T08:46:17.468Z,102360.50
2023-02-14T08:48:47.228Z,102365.97
2023-02-14T08:51:14.976Z,102367.47
2023-02-14T08:53:42.911Z,102352.00
2023-02-14T08:56:12.033Z,102371.25
2023-02-14T08:58:39.220Z,102370.81
2023-02-14T09:01:15.355Z,102375.47
2023-02-14T09:03:43.031Z,102373.56
2023-02-14T09:06:19.176Z,102366.13
2023-02-14T09:08:46.604Z,102361.91
2023-02-14T09:11:22.393Z,102371.41
2023-02-14T09:13:50.826Z,102365.50
2023-02-14T09:16:18.627Z,102378.72
2023-02-14T09:18:46.937Z,102373.44
2023-02-14T09:21:19.060Z,102379.34
2023-02-14T09:23:45.952Z,102379.50
2023-02-14T09:26:14.330Z,102374.59
2023-02-14T09:28:41.289Z,102372.69
2023-02-14T09:31:10.260Z,102370.78
2023-02-14T09:33:37.265Z,102364.84
2023-02-14T09:36:06.631Z,102373.47
2023-02-14T09:38:33.148Z,102370.22
2023-02-14T09:41:00.107Z,102369.78
2023-02-14T09:43:38.231Z,102368.03
2023-02-14T09:46:11.534Z,102367.41
2023-02-14T09:48:45.390Z,102366.66
2023-02-14T09:51:16.277Z,102371.25
2023-02-14T09:53:51.560Z,102370.88
2023-02-14T09:56:51.888Z,102367.44
2023-02-14T09:59:28.994Z,102370.13
2023-02-14T10:02:07.956Z,102380.75
2023-02-14T10:04:42.767Z,102365.03
2023-02-14T10:07:27.342Z,102367.72
2023-02-14T10:10:14.090Z,102374.19
2023-02-14T10:12:50.554Z,102369.25
2023-02-14T10:15:25.661Z,102365.16
2023-02-14T10:18:01.028Z,102353.94
2023-02-14T10:20:35.222Z,102354.47
2023-02-14T10:23:06.820Z,102348.13
2023-02-14T10:25:46.312Z,102355.50
2023-02-14T10:28:16.833Z,102353.03
2023-02-14T10:30:55.243Z,102350.06
2023-02-14T10:33:27.956Z,102345.56
2023-02-14T10:36:10.456Z,102332.56
2023-02-14T10:39:00.889Z,102331.34
2023-02-14T10:41:40.953Z,102334.56
2023-02-14T10:44:26.434Z,102331.34
2023-02-14T10:47:13.147Z,102333.66
2023-02-14T10:49:54.855Z,102324.38
2023-02-14T10:52:28.602Z,102312.66
2023-02-14T10:55:12.421Z,102324.66
2023-02-14T10:57:50.844Z,102309.59
2023-02-14T11:00:24.209Z,102307.03
2023-02-14T11:02:58.296Z,102309.16
2023-02-14T11:05:49.056Z,102303.06
2023-02-14T11:08:18.825Z,102315.66
2023-02-14T11:10:48.573Z,102311.19
2023-02-14T11:13:34.364Z,102304.66
2023-02-14T11:16:20.489Z,102301.22
2023-02-14T11:19:20.028Z,102296.09
2023-02-14T11:21:49.679Z,102301.91
2023-02-14T11:24:30.047Z,102290.56
2023-02-14T11:27:00.826Z,102289.97
2023-02-14T11:29:47.755Z,102290.78
2023-02-14T11:32:27.156Z,102294.31
2023-02-14T11:35:08.934Z,102286.69
2023-02-14T11:37:44.506Z,102277.28
2023-02-14T11:40:42.456Z,102276.78
2023-02-14T11:43:15.099Z,102275.41
2023-02-14T11:45:43.967Z,102271.50
2023-02-14T11:48:37.691Z,102275.69
2023-02-14T11:51:11.864Z,102265.09
2023-02-14T11:53:56.346Z,102248.56
2023-02-14T11:56:25.377Z,102250.75
2023-02-14T13:38:06.975Z,102200.69
2023-02-14T13:40:35.764Z,102199.34
2023-02-14T13:43:03.012Z,102194.03
2023-02-14T13:45:29.630Z,102201.03
2023-02-14T13:48:09.235Z,102201.53
2023-02-14T13:51:07.766Z,102196.19
2023-02-14T13:53:43.292Z,102201.41
2023-02-14T13:56:12.585Z,102209.31
2023-02-14T13:58:55.970Z,102209.72
2023-02-14T14:01:43.340Z,102213.00
2023-02-14T14:04:34.291Z,102209.59
2023-02-14T14:07:03.718Z,102209.94
2023-02-14T14:09:42.252Z,102199.88
2023-02-14T14:12:27.033Z,102208.19
2023-02-14T14:15:05.782Z,102199.22
2023-02-14T14:18:06.658Z,102193.31
2023-02-14T14:27:46.071Z,102200.88
2023-02-14T14:30:36.409Z,102189.31
2023-02-14T14:33:26.088Z,102185.50
2023-02-14T14:36:21.330Z,102180.84
2023-02-14T14:38:50.527Z,102186.75
2023-02-14T14:41:17.868Z,102195.47
2023-02-14T14:44:05.698Z,102181.75
2023-02-14T14:46:35.837Z,102177.47
2023-02-14T14:49:02.949Z,102174.00
2023-02-14T14:51:36.152Z,102177.47
2023-02-14T14:54:22.127Z,102177.25
2023-02-14T14:56:59.200Z,102174.72
2023-02-14T14:59:30.325Z,102179.78
2023-02-14T15:01:57.330Z,102178.47
2023-02-14T15:04:28.789Z,102186.25
2023-02-14T15:06:57.284Z,102174.00
2023-02-14T15:09:39.302Z,102169.81
2023-02-14T15:12:06.855Z,102180.41
2023-02-14T15:14:43.820Z,102172.22
2023-02-14T15:17:23.558Z,102175.78
2023-02-14T15:19:56.888Z,102177.00
2023-02-14T15:22:28.020Z,102173.03
2023-02-14T15:24:54.866Z,102181.06
2023-02-14T15:27:24.879Z,102181.97
2023-02-14T15:30:06.183Z,102179.69
2023-02-14T15:32:35.336Z,102178.38
2023-02-14T15:35:04.501Z,102175.31
2023-02-14T15:37:32.169Z,102179.66
2023-02-14T15:39:59.582Z,102175.69
2023-02-14T15:42:31.188Z,102178.53
2023-02-14T15:45:36.711Z,102187.34
2023-02-14T15:48:11.658Z,102189.13
2023-02-14T15:50:46.828Z,102180.81
2023-02-14T15:53:19.275Z,102181.97
2023-02-14T15:55:50.354Z,102184.56
2023-02-14T15:58:25.451Z,102191.25
2023-02-14T16:00:53.500Z,102188.47
2023-02-14T16:03:24.290Z,102195.53
2023-02-14T16:05:51.747Z,102200.72
2023-02-14T16:08:42.347Z,102196.78
2023-02-14T16:11:26.794Z,102194.41
2023-02-14T16:13:53.822Z,102200.28
2023-02-14T16:16:20.443Z,102197.81
2023-02-14T16:18:53.329Z,102203.81
2023-02-14T16:21:25.982Z,102198.66
2023-02-14T16:24:07.876Z,102217.28
2023-02-14T16:26:35.940Z,102216.91
2023-02-14T16:29:03.542Z,102222.22
2023-02-14T16:31:30.829Z,102224.97
2023-02-14T16:33:57.458Z,102220.56
2023-02-14T16:36:32.960Z,102221.00
2023-02-14T16:39:03.464Z,102229.44
2023-02-14T16:41:31.439Z,102230.53
2023-02-14T16:43:58.440Z,102229.91
2023-02-14T16:46:32.995Z,102233.09
2023-02-14T16:48:59.708Z,102231.63
2023-02-14T16:51:29.538Z,102231.63
2023-02-14T16:53:59.334Z,102231.63
2023-02-14T16:56:44.746Z,102228.44
2023-02-14T16:59:11.425Z,102228.63
2023-02-14T17:01:38.326Z,102229.50
2023-02-14T17:04:05.242Z,102234.16
2023-02-14T17:06:33.861Z,102231.63
2023-02-14T17:09:04.457Z,102235.91
2023-02-14T17:11:32.508Z,102238.84
2023-02-14T17:13:59.422Z,102230.66
2023-02-14T17:16:26.064Z,102231.13
2023-02-14T17:18:53.013Z,102226.06
2023-02-14T17:21:23.909Z,102235.84
2023-02-14T17:23:50.994Z,102230.00
2023-02-14T17:26:17.542Z,102235.31
2023-02-14T17:28:44.614Z,102238.69
2023-02-14T17:31:11.283Z,102235.09
2023-02-14T17:33:37.904Z,102235.53
2023-02-14T17:36:06.462Z,102238.06
2023-02-14T17:38:34.511Z,102252.81
2023-02-14T17:41:11.053Z,102245.22
2023-02-14T17:43:37.719Z,102242.31
2023-02-14T17:46:05.202Z,102248.25
2023-02-14T17:48:31.923Z,102243.44
2023-02-14T17:51:04.270Z,102241.78
2023-02-14T17:53:30.881Z,102249.81
2023-02-14T17:55:57.553Z,102247.72
2023-02-14T17:58:24.480Z,102246.91
2023-02-14T18:00:51.170Z,102246.53
2023-02-14T18:03:17.714Z,102259.16
2023-02-14T18:05:44.328Z,102243.34
2023-02-14T18:08:11.011Z,102244.19
2023-02-14T18:10:37.844Z,102249.69
2023-02-14T18:13:04.486Z,102256.47
2023-02-14T18:15:31.051Z,102255.41
2023-02-14T18:17:57.608Z,102260.03
2023-02-14T18:20:24.220Z,102261.09
2023-02-14T18:22:50.755Z,102255.38
2023-02-14T18:25:17.484Z,102258.97
2023-02-14T18:27:44.018Z,102265.09
2023-02-14T18:30:11.005Z,102261.69
2023-02-14T18:32:37.623Z,102257.47
2023-02-14T18:35:04.396Z,102258.94
2023-02-14T18:37:31.054Z,102248.63
2023-02-14T18:39:57.688Z,102255.56
2023-02-14T18:42:24.307Z,102263.81
2023-02-14T18:44:51.058Z,102251.72
2023-02-14T18:47:17.679Z,102260.13
2023-02-14T18:49:44.268Z,102255.72
2023-02-14T18:52:10.928Z,102254.47
2023-02-14T18:54:37.488Z,102261.63
2023-02-14T18:57:04.118Z,102253.81
2023-02-14T18:59:30.687Z,102259.03
2023-02-14T19:01:57.268Z,102259.25
2023-02-14T19:04:23.898Z,102245.97
2023-02-14T19:06:50.810Z,102261.31
2023-02-14T19:09:17.458Z,102250.13
2023-02-14T19:11:44.474Z,102253.69
2023-02-14T19:14:11.303Z,102251.38
2023-02-14T19:16:42.688Z,102255.31
2023-02-14T19:19:10.318Z,102269.75
2023-02-14T19:21:36.960Z,102266.16
2023-02-14T19:24:05.743Z,102261.25
2023-02-14T19:26:34.656Z,102261.66
2023-02-14T19:29:04.816Z,102263.81
2023-02-14T19:31:31.720Z,102255.41
2023-02-14T19:33:58.544Z,102256.38
2023-02-14T19:36:25.081Z,102259.22
2023-02-14T19:38:52.873Z,102259.81
2023-02-14T19:41:28.741Z,102255.28
2023-02-14T19:43:57.149Z,102264.78
2023-02-14T19:46:25.096Z,102258.00
2023-02-14T19:48:52.299Z,102264.03
2023-02-14T19:51:27.010Z,102262.66
2023-02-14T19:53:55.162Z,102262.19
2023-02-14T19:56:27.283Z,102265.63
2023-02-14T19:58:54.621Z,102259.25
2023-02-14T20:01:30.549Z,102263.34
2023-02-14T20:03:57.906Z,102261.06
2023-02-14T20:06:26.855Z,102255.75
2023-02-14T20:08:53.599Z,102260.19
2023-02-14T20:11:29.043Z,102257.25
2023-02-14T20:13:55.739Z,102268.38
2023-02-14T20:16:27.095Z,102267.72
2023-02-14T20:18:57.021Z,102263.56
2023-02-14T20:21:25.339Z,102264.34
2023-02-14T20:23:52.496Z,102264.78
2023-02-14T20:26:19.602Z,102263.59
2023-02-14T20:28:47.283Z,102262.88
2023-02-14T20:31:15.879Z,102261.16
2023-02-14T20:33:42.587Z,102266.22
2023-02-14T20:36:09.213Z,102266.69
2023-02-14T20:38:35.808Z,102269.41
2023-02-14T20:41:07.185Z,102268.66
2023-02-14T20:43:34.418Z,102275.50
2023-02-14T20:46:01.998Z,102267.72
2023-02-14T20:48:29.853Z,102271.25
2023-02-14T20:50:57.172Z,102271.47
2023-02-14T20:53:24.679Z,102262.66
2023-02-14T20:55:52.653Z,102256.16
2023-02-14T20:58:20.208Z,102267.56
2023-02-14T21:00:46.792Z,102260.53
2023-02-14T21:03:13.375Z,102264.47
2023-02-14T21:05:40.052Z,102267.56
2023-02-14T21:08:06.674Z,102267.91
2023-02-14T21:10:33.294Z,102268.53
2023-02-14T21:12:59.928Z,102267.78
2023-02-14T21:15:26.584Z,102268.78
2023-02-14T21:17:53.208Z,102273.13
2023-02-14T21:20:19.799Z,102262.81
2023-02-14T21:22:46.398Z,102261.00
2023-02-14T21:25:13.025Z,102260.09
2023-02-14T21:27:39.676Z,102270.13
2023-02-14T21:30:07.110Z,102261.41
2023-02-14T21:32:33.758Z,102275.69
2023-02-14T21:35:00.386Z,102269.97
2023-02-14T21:37:27.062Z,102277.50
2023-02-14T21:39:53.605Z,102275.44
2023-02-14T21:42:20.195Z,102272.38
2023-02-14T21:44:46.965Z,102266.22
2023-02-14T21:47:13.585Z,102278.19
2023-02-14T21:49:40.163Z,102273.88
2023-02-14T21:52:06.704Z,102268.34
2023-02-14T21:54:33.212Z,102277.81
2023-02-14T21:56:59.850Z,102261.81
2023-02-14T21:59:26.395Z,102274.53
2023-02-14T22:01:53.129Z,102265.66
2023-02-14T22:04:19.858Z,102264.31
2023-02-14T22:06:46.453Z,102269.47
2023-02-14T22:09:14.205Z,102269.13
2023-02-14T22:11:40.929Z,102262.91
2023-02-14T22:14:07.556Z,102266.59
2023-02-14T22:16:34.235Z,102271.50
2023-02-14T22:19:00.949Z,102273.72
2023-02-14T22:21:27.975Z,102275.63
2023-02-14T22:23:55.364Z,102276.94
2023-02-14T22:26:31.448Z,102283.66
2023-02-14T22:29:00.097Z,102278.63
2023-02-14T22:31:32.535Z,102284.09
2023-02-14T22:33:59.256Z,102280.34
2023-02-14T22:36:26.001Z,102279.06
2023-02-14T22:38:52.606Z,102288.06
2023-02-14T22:41:22.461Z,102284.47
2023-02-14T22:43:49.051Z,102292.63
2023-02-14T22:46:17.976Z,102281.91
2023-02-14T22:48:44.944Z,102287.00
2023-02-14T22:51:30.295Z,102289.53
2023-02-14T22:54:09.404Z,102291.22
2023-02-14T22:56:38.411Z,102289.47
2023-02-14T22:59:17.422Z,102286.75
2023-02-14T23:01:44.394Z,102280.88
2023-02-14T23:04:11.510Z,102281.13
2023-02-14T23:06:38.390Z,102280.31
2023-02-14T23:09:07.816Z,102282.84
2023-02-14T23:11:36.946Z,102285.63
2023-02-14T23:14:04.520Z,102267.28
2023-02-14T23:16:31.802Z,102267.69
2023-02-14T23:18:58.654Z,102277.88
2023-02-14T23:21:25.228Z,102269.84
2023-02-14T23:23:51.895Z,102266.84
2023-02-14T23:26:21.697Z,102270.44
2023-02-14T23:28:48.326Z,102268.09
2023-02-14T23:31:14.912Z,102261.09
2023-02-14T23:33:41.518Z,102277.34
2023-02-14T23:36:08.379Z,102269.69
2023-02-14T23:38:34.974Z,102276.44
2023-02-14T23:41:09.436Z,102266.56
2023-02-14T23:43:35.959Z,102265.50
2023-02-14T23:46:02.903Z,102267.44
2023-02-14T23:48:29.865Z,102252.47
2023-02-14T23:50:59.606Z,102258.78
2023-02-14T23:53:26.162Z,102269.69
2023-02-14T23:55:52.751Z,102271.78
2023-02-14T23:58:19.353Z,102274.78
